sensor_id;sensor_type;location;lat;lon;timestamp;temperature;humidity
38464;DHT22;24243;51.956;5.902;2023-05-07T00:01:45;22.40;50.90
38464;DHT22;24243;51.956;5.902;2023-05-07T00:04:11;22.40;51.00
38464;DHT22;24243;51.956;5.902;2023-05-07T00:06:37;22.40;51.50
38464;DHT22;24243;51.956;5.902;2023-05-07T00:09:02;22.40;50.90
38464;DHT22;24243;51.956;5.902;2023-05-07T00:11:29;22.40;51.00
38464;DHT22;24243;51.956;5.902;2023-05-07T00:13:55;22.40;51.00
38464;DHT22;24243;51.956;5.902;2023-05-07T00:16:21;22.40;51.00
38464;DHT22;24243;51.956;5.902;2023-05-07T00:18:47;22.40;51.00
38464;DHT22;24243;51.956;5.902;2023-05-07T00:21:12;22.40;51.00
38464;DHT22;24243;51.956;5.902;2023-05-07T00:23:38;22.40;51.00
38464;DHT22;24243;51.956;5.902;2023-05-07T00:26:04;22.40;51.00
38464;DHT22;24243;51.956;5.902;2023-05-07T00:28:30;22.40;51.00
38464;DHT22;24243;51.956;5.902;2023-05-07T00:30:56;22.40;51.00
38464;DHT22;24243;51.956;5.902;2023-05-07T00:33:21;22.40;51.00
38464;DHT22;24243;51.956;5.902;2023-05-07T00:35:47;22.40;51.00
38464;DHT22;24243;51.956;5.902;2023-05-07T00:38:13;22.40;51.00
38464;DHT22;24243;51.956;5.902;2023-05-07T00:40:39;22.40;51.00
38464;DHT22;24243;51.956;5.902;2023-05-07T00:43:05;22.40;51.00
38464;DHT22;24243;51.956;5.902;2023-05-07T00:45:33;22.40;51.10
38464;DHT22;24243;51.956;5.902;2023-05-07T00:48:01;22.30;51.00
38464;DHT22;24243;51.956;5.902;2023-05-07T00:50:28;22.40;51.10
38464;DHT22;24243;51.956;5.902;2023-05-07T00:52:54;22.30;51.00
38464;DHT22;24243;51.956;5.902;2023-05-07T00:55:22;22.30;51.00
38464;DHT22;24243;51.956;5.902;2023-05-07T00:57:49;22.30;51.00
38464;DHT22;24243;51.956;5.902;2023-05-07T01:00:16;22.30;51.00
38464;DHT22;24243;51.956;5.902;2023-05-07T01:02:42;22.30;51.00
38464;DHT22;24243;51.956;5.902;2023-05-07T01:05:14;22.30;51.00
38464;DHT22;24243;51.956;5.902;2023-05-07T01:07:42;22.30;51.00
38464;DHT22;24243;51.956;5.902;2023-05-07T01:10:08;22.30;51.00
38464;DHT22;24243;51.956;5.902;2023-05-07T01:12:36;22.30;51.00
38464;DHT22;24243;51.956;5.902;2023-05-07T01:15:03;22.30;51.00
38464;DHT22;24243;51.956;5.902;2023-05-07T01:17:29;22.30;51.00
38464;DHT22;24243;51.956;5.902;2023-05-07T01:19:55;22.30;51.10
38464;DHT22;24243;51.956;5.902;2023-05-07T01:22:33;22.30;51.10
38464;DHT22;24243;51.956;5.902;2023-05-07T01:25:00;22.30;51.10
38464;DHT22;24243;51.956;5.902;2023-05-07T01:27:27;22.20;51.00
38464;DHT22;24243;51.956;5.902;2023-05-07T01:29:53;22.30;51.10
38464;DHT22;24243;51.956;5.902;2023-05-07T01:32:22;22.30;51.10
38464;DHT22;24243;51.956;5.902;2023-05-07T01:34:50;22.30;51.10
38464;DHT22;24243;51.956;5.902;2023-05-07T01:37:17;22.20;51.00
38464;DHT22;24243;51.956;5.902;2023-05-07T01:39:43;22.30;51.10
38464;DHT22;24243;51.956;5.902;2023-05-07T01:42:09;22.20;51.00
38464;DHT22;24243;51.956;5.902;2023-05-07T01:44:35;22.30;51.10
38464;DHT22;24243;51.956;5.902;2023-05-07T01:47:02;22.20;51.10
38464;DHT22;24243;51.956;5.902;2023-05-07T01:49:28;22.20;51.10
38464;DHT22;24243;51.956;5.902;2023-05-07T01:51:54;22.20;51.10
38464;DHT22;24243;51.956;5.902;2023-05-07T01:54:25;22.20;51.10
38464;DHT22;24243;51.956;5.902;2023-05-07T01:56:53;22.20;51.10
38464;DHT22;24243;51.956;5.902;2023-05-07T01:59:19;22.20;51.10
38464;DHT22;24243;51.956;5.902;2023-05-07T02:01:44;22.20;51.10
38464;DHT22;24243;51.956;5.902;2023-05-07T02:04:10;22.20;51.10
38464;DHT22;24243;51.956;5.902;2023-05-07T02:06:36;22.20;51.10
38464;DHT22;24243;51.956;5.902;2023-05-07T02:09:01;22.20;51.10
38464;DHT22;24243;51.956;5.902;2023-05-07T02:11:27;22.20;51.10
38464;DHT22;24243;51.956;5.902;2023-05-07T02:13:53;22.20;51.10
38464;DHT22;24243;51.956;5.902;2023-05-07T02:16:18;22.20;51.10
38464;DHT22;24243;51.956;5.902;2023-05-07T02:18:45;22.20;51.10
38464;DHT22;24243;51.956;5.902;2023-05-07T02:21:11;22.20;51.10
38464;DHT22;24243;51.956;5.902;2023-05-07T02:23:36;22.20;51.10
38464;DHT22;24243;51.956;5.902;2023-05-07T02:26:04;22.20;51.10
38464;DHT22;24243;51.956;5.902;2023-05-07T02:28:29;22.20;51.10
38464;DHT22;24243;51.956;5.902;2023-05-07T02:30:55;22.20;51.10
38464;DHT22;24243;51.956;5.902;2023-05-07T02:33:21;22.20;51.10
38464;DHT22;24243;51.956;5.902;2023-05-07T02:35:46;22.20;51.10
38464;DHT22;24243;51.956;5.902;2023-05-07T02:38:12;22.20;51.10
38464;DHT22;24243;51.956;5.902;2023-05-07T02:40:38;22.10;51.10
38464;DHT22;24243;51.956;5.902;2023-05-07T02:43:05;22.20;51.20
38464;DHT22;24243;51.956;5.902;2023-05-07T02:45:32;22.20;51.20
38464;DHT22;24243;51.956;5.902;2023-05-07T02:47:58;22.10;51.10
38464;DHT22;24243;51.956;5.902;2023-05-07T02:50:24;22.10;51.10
38464;DHT22;24243;51.956;5.902;2023-05-07T02:52:50;22.10;51.10
38464;DHT22;24243;51.956;5.902;2023-05-07T02:55:16;22.10;51.10
38464;DHT22;24243;51.956;5.902;2023-05-07T02:57:42;22.10;51.10
38464;DHT22;24243;51.956;5.902;2023-05-07T03:00:16;22.10;51.10
38464;DHT22;24243;51.956;5.902;2023-05-07T03:02:42;22.20;51.20
38464;DHT22;24243;51.956;5.902;2023-05-07T03:05:08;22.10;51.10
38464;DHT22;24243;51.956;5.902;2023-05-07T03:07:35;22.10;51.10
38464;DHT22;24243;51.956;5.902;2023-05-07T03:10:01;22.10;51.10
38464;DHT22;24243;51.956;5.902;2023-05-07T03:12:26;22.10;51.10
38464;DHT22;24243;51.956;5.902;2023-05-07T03:14:52;22.10;51.10
38464;DHT22;24243;51.956;5.902;2023-05-07T03:17:18;22.10;51.20
38464;DHT22;24243;51.956;5.902;2023-05-07T03:19:43;22.10;51.10
38464;DHT22;24243;51.956;5.902;2023-05-07T03:22:09;22.10;51.10
38464;DHT22;24243;51.956;5.902;2023-05-07T03:24:35;22.10;51.10
38464;DHT22;24243;51.956;5.902;2023-05-07T03:27:00;22.10;51.10
38464;DHT22;24243;51.956;5.902;2023-05-07T03:29:26;22.10;51.10
38464;DHT22;24243;51.956;5.902;2023-05-07T03:31:52;22.10;51.20
38464;DHT22;24243;51.956;5.902;2023-05-07T03:34:18;22.10;51.20
38464;DHT22;24243;51.956;5.902;2023-05-07T03:36:48;22.10;51.10
38464;DHT22;24243;51.956;5.902;2023-05-07T03:39:14;22.10;51.20
38464;DHT22;24243;51.956;5.902;2023-05-07T03:41:40;22.10;51.20
38464;DHT22;24243;51.956;5.902;2023-05-07T03:44:06;22.10;51.20
38464;DHT22;24243;51.956;5.902;2023-05-07T03:46:31;22.10;51.20
38464;DHT22;24243;51.956;5.902;2023-05-07T03:48:58;22.10;51.20
38464;DHT22;24243;51.956;5.902;2023-05-07T03:51:24;22.10;51.20
38464;DHT22;24243;51.956;5.902;2023-05-07T03:53:50;22.10;51.20
38464;DHT22;24243;51.956;5.902;2023-05-07T03:56:18;22.10;51.20
38464;DHT22;24243;51.956;5.902;2023-05-07T03:58:44;22.10;51.20
38464;DHT22;24243;51.956;5.902;2023-05-07T04:01:10;22.10;51.20
38464;DHT22;24243;51.956;5.902;2023-05-07T04:03:36;22.00;51.20
38464;DHT22;24243;51.956;5.902;2023-05-07T04:06:01;22.00;51.20
38464;DHT22;24243;51.956;5.902;2023-05-07T04:08:27;22.00;51.20
38464;DHT22;24243;51.956;5.902;2023-05-07T04:10:57;22.00;51.20
38464;DHT22;24243;51.956;5.902;2023-05-07T04:13:24;22.00;51.20
38464;DHT22;24243;51.956;5.902;2023-05-07T04:15:50;22.00;51.20
38464;DHT22;24243;51.956;5.902;2023-05-07T04:18:16;22.00;51.20
38464;DHT22;24243;51.956;5.902;2023-05-07T04:20:41;22.10;51.90
38464;DHT22;24243;51.956;5.902;2023-05-07T04:23:08;22.00;51.20
38464;DHT22;24243;51.956;5.902;2023-05-07T04:25:34;22.00;51.20
38464;DHT22;24243;51.956;5.902;2023-05-07T04:28:00;22.00;51.20
38464;DHT22;24243;51.956;5.902;2023-05-07T04:30:26;22.00;51.20
38464;DHT22;24243;51.956;5.902;2023-05-07T04:32:52;22.00;51.20
38464;DHT22;24243;51.956;5.902;2023-05-07T04:35:18;22.00;51.20
38464;DHT22;24243;51.956;5.902;2023-05-07T04:37:44;22.00;51.20
38464;DHT22;24243;51.956;5.902;2023-05-07T04:40:10;22.00;51.20
38464;DHT22;24243;51.956;5.902;2023-05-07T04:42:36;22.00;51.20
38464;DHT22;24243;51.956;5.902;2023-05-07T04:45:02;22.00;51.20
38464;DHT22;24243;51.956;5.902;2023-05-07T04:47:28;22.00;51.20
38464;DHT22;24243;51.956;5.902;2023-05-07T04:49:53;22.00;51.20
38464;DHT22;24243;51.956;5.902;2023-05-07T04:52:19;22.00;51.20
38464;DHT22;24243;51.956;5.902;2023-05-07T04:54:45;22.00;51.80
38464;DHT22;24243;51.956;5.902;2023-05-07T04:57:11;22.00;51.20
38464;DHT22;24243;51.956;5.902;2023-05-07T04:59:37;22.00;51.20
38464;DHT22;24243;51.956;5.902;2023-05-07T05:02:02;22.00;51.20
38464;DHT22;24243;51.956;5.902;2023-05-07T05:04:30;22.00;51.20
38464;DHT22;24243;51.956;5.902;2023-05-07T05:06:55;22.00;51.20
38464;DHT22;24243;51.956;5.902;2023-05-07T05:09:22;22.00;51.20
38464;DHT22;24243;51.956;5.902;2023-05-07T05:11:47;22.00;51.20
38464;DHT22;24243;51.956;5.902;2023-05-07T05:14:13;22.00;51.20
38464;DHT22;24243;51.956;5.902;2023-05-07T05:16:39;22.00;51.20
38464;DHT22;24243;51.956;5.902;2023-05-07T05:19:04;22.00;51.20
38464;DHT22;24243;51.956;5.902;2023-05-07T05:21:31;22.00;51.20
38464;DHT22;24243;51.956;5.902;2023-05-07T05:23:58;22.00;51.20
38464;DHT22;24243;51.956;5.902;2023-05-07T05:26:24;22.00;51.20
38464;DHT22;24243;51.956;5.902;2023-05-07T05:28:49;22.00;51.20
38464;DHT22;24243;51.956;5.902;2023-05-07T05:31:16;22.00;51.20
38464;DHT22;24243;51.956;5.902;2023-05-07T05:33:42;22.00;51.20
38464;DHT22;24243;51.956;5.902;2023-05-07T05:36:10;22.00;51.10
38464;DHT22;24243;51.956;5.902;2023-05-07T05:38:38;22.10;51.20
38464;DHT22;24243;51.956;5.902;2023-05-07T05:41:04;22.10;51.20
38464;DHT22;24243;51.956;5.902;2023-05-07T05:43:30;22.10;51.20
38464;DHT22;24243;51.956;5.902;2023-05-07T05:45:56;22.10;51.20
38464;DHT22;24243;51.956;5.902;2023-05-07T05:48:22;22.10;51.20
38464;DHT22;24243;51.956;5.902;2023-05-07T05:50:48;22.10;51.20
38464;DHT22;24243;51.956;5.902;2023-05-07T05:53:13;22.10;51.10
38464;DHT22;24243;51.956;5.902;2023-05-07T05:55:39;22.10;51.10
38464;DHT22;24243;51.956;5.902;2023-05-07T05:58:05;22.10;51.10
38464;DHT22;24243;51.956;5.902;2023-05-07T06:00:31;22.10;51.10
38464;DHT22;24243;51.956;5.902;2023-05-07T06:02:57;22.10;51.10
38464;DHT22;24243;51.956;5.902;2023-05-07T06:05:23;22.10;51.20
38464;DHT22;24243;51.956;5.902;2023-05-07T06:07:49;22.10;51.20
38464;DHT22;24243;51.956;5.902;2023-05-07T06:10:14;22.10;51.20
38464;DHT22;24243;51.956;5.902;2023-05-07T06:12:40;22.20;51.30
38464;DHT22;24243;51.956;5.902;2023-05-07T06:15:06;22.10;51.30
38464;DHT22;24243;51.956;5.902;2023-05-07T06:17:32;22.20;51.30
38464;DHT22;24243;51.956;5.902;2023-05-07T06:19:57;22.20;51.40
38464;DHT22;24243;51.956;5.902;2023-05-07T06:22:23;22.20;51.40
38464;DHT22;24243;51.956;5.902;2023-05-07T06:24:49;22.20;51.50
38464;DHT22;24243;51.956;5.902;2023-05-07T06:27:15;22.20;51.60
38464;DHT22;24243;51.956;5.902;2023-05-07T06:29:40;22.20;51.60
38464;DHT22;24243;51.956;5.902;2023-05-07T06:32:10;22.20;51.60
38464;DHT22;24243;51.956;5.902;2023-05-07T06:34:37;22.20;51.60
38464;DHT22;24243;51.956;5.902;2023-05-07T06:37:03;22.20;51.60
38464;DHT22;24243;51.956;5.902;2023-05-07T06:39:29;22.30;51.70
38464;DHT22;24243;51.956;5.902;2023-05-07T06:41:54;22.30;51.70
38464;DHT22;24243;51.956;5.902;2023-05-07T06:44:20;22.30;51.60
38464;DHT22;24243;51.956;5.902;2023-05-07T06:46:46;22.30;51.60
38464;DHT22;24243;51.956;5.902;2023-05-07T06:49:13;22.40;51.70
38464;DHT22;24243;51.956;5.902;2023-05-07T06:51:39;22.40;51.70
38464;DHT22;24243;51.956;5.902;2023-05-07T06:54:05;22.40;51.70
38464;DHT22;24243;51.956;5.902;2023-05-07T06:56:31;22.40;51.70
38464;DHT22;24243;51.956;5.902;2023-05-07T06:58:57;22.40;51.70
38464;DHT22;24243;51.956;5.902;2023-05-07T07:01:23;22.40;51.60
38464;DHT22;24243;51.956;5.902;2023-05-07T07:03:48;22.50;51.60
38464;DHT22;24243;51.956;5.902;2023-05-07T07:06:14;22.50;51.50
38464;DHT22;24243;51.956;5.902;2023-05-07T07:08:40;22.60;51.50
38464;DHT22;24243;51.956;5.902;2023-05-07T07:11:06;22.60;51.40
38464;DHT22;24243;51.956;5.902;2023-05-07T07:13:32;22.60;51.40
38464;DHT22;24243;51.956;5.902;2023-05-07T07:15:57;22.60;51.40
38464;DHT22;24243;51.956;5.902;2023-05-07T07:18:23;22.70;51.40
38464;DHT22;24243;51.956;5.902;2023-05-07T07:20:49;22.70;51.50
38464;DHT22;24243;51.956;5.902;2023-05-07T07:23:15;22.70;51.50
38464;DHT22;24243;51.956;5.902;2023-05-07T07:25:40;22.70;51.50
38464;DHT22;24243;51.956;5.902;2023-05-07T07:28:06;22.70;51.60
38464;DHT22;24243;51.956;5.902;2023-05-07T07:30:32;22.70;51.70
38464;DHT22;24243;51.956;5.902;2023-05-07T07:32:58;22.70;51.70
38464;DHT22;24243;51.956;5.902;2023-05-07T07:35:29;22.70;51.70
38464;DHT22;24243;51.956;5.902;2023-05-07T07:37:55;22.70;51.80
38464;DHT22;24243;51.956;5.902;2023-05-07T07:40:20;22.70;51.80
38464;DHT22;24243;51.956;5.902;2023-05-07T07:42:46;22.80;51.90
38464;DHT22;24243;51.956;5.902;2023-05-07T07:45:12;22.80;52.00
38464;DHT22;24243;51.956;5.902;2023-05-07T07:47:39;22.80;52.00
38464;DHT22;24243;51.956;5.902;2023-05-07T07:50:05;22.80;52.10
38464;DHT22;24243;51.956;5.902;2023-05-07T07:52:31;22.80;52.10
38464;DHT22;24243;51.956;5.902;2023-05-07T07:54:57;22.80;52.10
38464;DHT22;24243;51.956;5.902;2023-05-07T07:57:22;22.80;52.10
38464;DHT22;24243;51.956;5.902;2023-05-07T07:59:49;22.80;52.10
38464;DHT22;24243;51.956;5.902;2023-05-07T08:02:16;22.80;52.20
38464;DHT22;24243;51.956;5.902;2023-05-07T08:04:42;22.80;52.20
38464;DHT22;24243;51.956;5.902;2023-05-07T08:07:09;22.90;52.10
38464;DHT22;24243;51.956;5.902;2023-05-07T08:09:36;22.90;52.10
38464;DHT22;24243;51.956;5.902;2023-05-07T08:12:02;22.90;52.10
38464;DHT22;24243;51.956;5.902;2023-05-07T08:14:28;22.90;52.20
38464;DHT22;24243;51.956;5.902;2023-05-07T08:16:54;23.00;52.20
38464;DHT22;24243;51.956;5.902;2023-05-07T08:19:20;23.00;52.10
38464;DHT22;24243;51.956;5.902;2023-05-07T08:21:47;23.00;52.00
38464;DHT22;24243;51.956;5.902;2023-05-07T08:24:16;23.00;52.00
38464;DHT22;24243;51.956;5.902;2023-05-07T08:26:43;23.00;51.90
38464;DHT22;24243;51.956;5.902;2023-05-07T08:29:09;23.10;51.90
38464;DHT22;24243;51.956;5.902;2023-05-07T08:31:35;23.10;51.90
38464;DHT22;24243;51.956;5.902;2023-05-07T08:34:01;23.10;51.80
38464;DHT22;24243;51.956;5.902;2023-05-07T08:36:26;23.10;51.80
38464;DHT22;24243;51.956;5.902;2023-05-07T08:38:54;23.20;51.90
38464;DHT22;24243;51.956;5.902;2023-05-07T08:41:20;23.20;51.90
38464;DHT22;24243;51.956;5.902;2023-05-07T08:43:50;23.20;51.90
38464;DHT22;24243;51.956;5.902;2023-05-07T08:46:18;23.30;51.90
38464;DHT22;24243;51.956;5.902;2023-05-07T08:48:45;23.30;51.90
38464;DHT22;24243;51.956;5.902;2023-05-07T08:51:15;23.30;51.80
38464;DHT22;24243;51.956;5.902;2023-05-07T08:53:42;23.40;52.40
38464;DHT22;24243;51.956;5.902;2023-05-07T08:56:11;23.40;51.70
38464;DHT22;24243;51.956;5.902;2023-05-07T08:58:37;23.40;51.70
38464;DHT22;24243;51.956;5.902;2023-05-07T09:01:07;23.40;51.70
38464;DHT22;24243;51.956;5.902;2023-05-07T09:03:33;23.50;51.60
38464;DHT22;24243;51.956;5.902;2023-05-07T09:05:59;23.50;51.60
38464;DHT22;24243;51.956;5.902;2023-05-07T09:08:27;23.60;51.50
38464;DHT22;24243;51.956;5.902;2023-05-07T09:10:53;23.70;51.40
38464;DHT22;24243;51.956;5.902;2023-05-07T09:13:19;23.70;51.20
38464;DHT22;24243;51.956;5.902;2023-05-07T09:15:45;23.80;51.10
38464;DHT22;24243;51.956;5.902;2023-05-07T09:18:11;23.90;51.00
38464;DHT22;24243;51.956;5.902;2023-05-07T09:20:38;24.00;51.20
38464;DHT22;24243;51.956;5.902;2023-05-07T09:23:03;24.00;51.30
38464;DHT22;24243;51.956;5.902;2023-05-07T09:25:33;24.00;51.90
38464;DHT22;24243;51.956;5.902;2023-05-07T09:28:01;24.00;52.20
38464;DHT22;24243;51.956;5.902;2023-05-07T09:30:31;24.00;52.30
38464;DHT22;24243;51.956;5.902;2023-05-07T09:33:02;24.00;53.70
38464;DHT22;24243;51.956;5.902;2023-05-07T09:35:29;23.80;54.20
38464;DHT22;24243;51.956;5.902;2023-05-07T09:37:57;23.70;54.30
38464;DHT22;24243;51.956;5.902;2023-05-07T09:40:28;23.70;54.40
38464;DHT22;24243;51.956;5.902;2023-05-07T09:42:54;23.70;54.50
38464;DHT22;24243;51.956;5.902;2023-05-07T09:45:29;23.70;54.40
38464;DHT22;24243;51.956;5.902;2023-05-07T09:47:57;23.70;54.40
38464;DHT22;24243;51.956;5.902;2023-05-07T09:50:29;23.70;54.30
38464;DHT22;24243;51.956;5.902;2023-05-07T09:52:56;23.70;54.20
38464;DHT22;24243;51.956;5.902;2023-05-07T09:55:23;23.70;54.20
38464;DHT22;24243;51.956;5.902;2023-05-07T09:57:53;23.70;54.10
38464;DHT22;24243;51.956;5.902;2023-05-07T10:00:19;23.80;54.10
38464;DHT22;24243;51.956;5.902;2023-05-07T10:02:51;23.80;54.10
38464;DHT22;24243;51.956;5.902;2023-05-07T10:05:18;23.80;54.10
38464;DHT22;24243;51.956;5.902;2023-05-07T10:07:46;23.80;54.20
38464;DHT22;24243;51.956;5.902;2023-05-07T10:10:12;23.90;54.30
38464;DHT22;24243;51.956;5.902;2023-05-07T10:12:38;23.90;54.30
38464;DHT22;24243;51.956;5.902;2023-05-07T10:15:09;23.90;54.20
38464;DHT22;24243;51.956;5.902;2023-05-07T10:17:40;24.00;54.20
38464;DHT22;24243;51.956;5.902;2023-05-07T10:20:07;24.00;54.20
38464;DHT22;24243;51.956;5.902;2023-05-07T10:22:45;24.10;54.20
38464;DHT22;24243;51.956;5.902;2023-05-07T10:25:37;24.10;54.10
38464;DHT22;24243;51.956;5.902;2023-05-07T10:28:06;24.20;54.10
38464;DHT22;24243;51.956;5.902;2023-05-07T10:33:29;24.30;54.20
38464;DHT22;24243;51.956;5.902;2023-05-07T10:35:58;24.30;54.10
38464;DHT22;24243;51.956;5.902;2023-05-07T10:38:27;24.30;54.10
38464;DHT22;24243;51.956;5.902;2023-05-07T10:40:53;24.40;54.00
38464;DHT22;24243;51.956;5.902;2023-05-07T10:43:19;24.40;54.00
38464;DHT22;24243;51.956;5.902;2023-05-07T10:46:11;24.40;53.90
38464;DHT22;24243;51.956;5.902;2023-05-07T10:51:34;24.50;53.70
38464;DHT22;24243;51.956;5.902;2023-05-07T10:56:44;24.60;53.60
38464;DHT22;24243;51.956;5.902;2023-05-07T11:02:02;24.60;53.50
38464;DHT22;24243;51.956;5.902;2023-05-07T11:04:29;24.60;53.40
38464;DHT22;24243;51.956;5.902;2023-05-07T11:15:08;24.70;53.20
38464;DHT22;24243;51.956;5.902;2023-05-07T11:17:35;24.70;53.20
38464;DHT22;24243;51.956;5.902;2023-05-07T11:20:17;24.70;53.30
38464;DHT22;24243;51.956;5.902;2023-05-07T11:22:43;24.70;53.20
38464;DHT22;24243;51.956;5.902;2023-05-07T11:25:08;24.70;53.10
38464;DHT22;24243;51.956;5.902;2023-05-07T11:27:34;24.80;53.10
38464;DHT22;24243;51.956;5.902;2023-05-07T11:30:01;24.80;53.00
38464;DHT22;24243;51.956;5.902;2023-05-07T11:32:28;24.80;53.00
38464;DHT22;24243;51.956;5.902;2023-05-07T11:34:55;24.90;53.00
38464;DHT22;24243;51.956;5.902;2023-05-07T11:37:22;24.90;53.00
38464;DHT22;24243;51.956;5.902;2023-05-07T11:39:48;24.90;52.90
38464;DHT22;24243;51.956;5.902;2023-05-07T11:44:57;24.90;52.70
38464;DHT22;24243;51.956;5.902;2023-05-07T11:47:24;24.90;52.70
38464;DHT22;24243;51.956;5.902;2023-05-07T11:49:54;24.90;52.60
38464;DHT22;24243;51.956;5.902;2023-05-07T11:52:21;24.90;52.50
38464;DHT22;24243;51.956;5.902;2023-05-07T11:54:54;24.90;52.40
38464;DHT22;24243;51.956;5.902;2023-05-07T11:57:21;24.90;52.30
38464;DHT22;24243;51.956;5.902;2023-05-07T11:59:47;24.90;52.30
38464;DHT22;24243;51.956;5.902;2023-05-07T12:02:14;24.90;52.20
38464;DHT22;24243;51.956;5.902;2023-05-07T12:04:41;24.90;52.20
38464;DHT22;24243;51.956;5.902;2023-05-07T12:07:13;24.90;52.10
38464;DHT22;24243;51.956;5.902;2023-05-07T12:09:43;24.90;52.10
38464;DHT22;24243;51.956;5.902;2023-05-07T12:12:09;24.80;52.00
38464;DHT22;24243;51.956;5.902;2023-05-07T12:14:42;24.80;51.90
38464;DHT22;24243;51.956;5.902;2023-05-07T12:17:09;24.80;51.80
38464;DHT22;24243;51.956;5.902;2023-05-07T12:19:36;24.80;51.80
38464;DHT22;24243;51.956;5.902;2023-05-07T12:22:07;24.70;51.70
38464;DHT22;24243;51.956;5.902;2023-05-07T12:24:49;24.80;51.70
38464;DHT22;24243;51.956;5.902;2023-05-07T12:27:21;24.70;51.60
38464;DHT22;24243;51.956;5.902;2023-05-07T12:29:48;24.70;51.70
38464;DHT22;24243;51.956;5.902;2023-05-07T12:32:15;24.70;51.80
38464;DHT22;24243;51.956;5.902;2023-05-07T12:34:41;24.70;51.90
38464;DHT22;24243;51.956;5.902;2023-05-07T12:37:07;24.70;52.00
38464;DHT22;24243;51.956;5.902;2023-05-07T12:39:33;24.60;52.10
38464;DHT22;24243;51.956;5.902;2023-05-07T12:41:59;24.60;52.20
38464;DHT22;24243;51.956;5.902;2023-05-07T12:44:28;24.60;52.30
38464;DHT22;24243;51.956;5.902;2023-05-07T12:46:54;24.60;52.40
38464;DHT22;24243;51.956;5.902;2023-05-07T12:49:20;24.60;52.40
38464;DHT22;24243;51.956;5.902;2023-05-07T12:51:49;24.60;52.50
38464;DHT22;24243;51.956;5.902;2023-05-07T12:54:31;24.60;52.60
38464;DHT22;24243;51.956;5.902;2023-05-07T12:57:06;24.60;52.60
38464;DHT22;24243;51.956;5.902;2023-05-07T12:59:37;24.60;52.70
38464;DHT22;24243;51.956;5.902;2023-05-07T13:02:04;24.60;52.70
38464;DHT22;24243;51.956;5.902;2023-05-07T13:04:29;24.60;52.70
38464;DHT22;24243;51.956;5.902;2023-05-07T13:06:55;24.50;52.70
38464;DHT22;24243;51.956;5.902;2023-05-07T13:09:21;24.60;52.80
38464;DHT22;24243;51.956;5.902;2023-05-07T13:11:47;24.50;52.80
38464;DHT22;24243;51.956;5.902;2023-05-07T13:14:12;24.50;52.90
38464;DHT22;24243;51.956;5.902;2023-05-07T13:16:38;24.50;52.90
38464;DHT22;24243;51.956;5.902;2023-05-07T13:19:04;24.50;53.00
38464;DHT22;24243;51.956;5.902;2023-05-07T13:21:30;24.50;53.00
38464;DHT22;24243;51.956;5.902;2023-05-07T13:23:59;24.50;53.00
38464;DHT22;24243;51.956;5.902;2023-05-07T13:26:25;24.50;53.00
38464;DHT22;24243;51.956;5.902;2023-05-07T13:28:52;24.50;53.00
38464;DHT22;24243;51.956;5.902;2023-05-07T13:31:18;24.50;53.00
38464;DHT22;24243;51.956;5.902;2023-05-07T13:33:46;24.50;53.00
38464;DHT22;24243;51.956;5.902;2023-05-07T13:36:12;24.50;53.00
38464;DHT22;24243;51.956;5.902;2023-05-07T13:38:38;24.50;53.00
38464;DHT22;24243;51.956;5.902;2023-05-07T13:41:04;24.60;53.10
38464;DHT22;24243;51.956;5.902;2023-05-07T13:43:30;24.60;53.10
38464;DHT22;24243;51.956;5.902;2023-05-07T13:45:57;24.60;53.10
38464;DHT22;24243;51.956;5.902;2023-05-07T13:48:22;24.60;53.10
38464;DHT22;24243;51.956;5.902;2023-05-07T13:50:48;24.60;53.10
38464;DHT22;24243;51.956;5.902;2023-05-07T13:53:14;24.60;53.10
38464;DHT22;24243;51.956;5.902;2023-05-07T13:55:43;24.60;53.10
38464;DHT22;24243;51.956;5.902;2023-05-07T13:58:09;24.60;53.20
38464;DHT22;24243;51.956;5.902;2023-05-07T14:00:35;24.60;53.20
38464;DHT22;24243;51.956;5.902;2023-05-07T14:03:01;24.60;53.20
38464;DHT22;24243;51.956;5.902;2023-05-07T14:05:27;24.60;53.20
38464;DHT22;24243;51.956;5.902;2023-05-07T14:07:54;24.60;53.20
38464;DHT22;24243;51.956;5.902;2023-05-07T14:10:22;24.60;53.30
38464;DHT22;24243;51.956;5.902;2023-05-07T14:12:56;24.60;53.30
38464;DHT22;24243;51.956;5.902;2023-05-07T14:15:22;24.60;53.20
38464;DHT22;24243;51.956;5.902;2023-05-07T14:17:48;24.60;53.00
38464;DHT22;24243;51.956;5.902;2023-05-07T14:20:14;24.60;52.80
38464;DHT22;24243;51.956;5.902;2023-05-07T14:22:40;24.60;52.80
38464;DHT22;24243;51.956;5.902;2023-05-07T14:25:06;24.60;52.80
38464;DHT22;24243;51.956;5.902;2023-05-07T14:27:32;24.60;52.70
38464;DHT22;24243;51.956;5.902;2023-05-07T14:29:58;24.60;52.60
38464;DHT22;24243;51.956;5.902;2023-05-07T14:32:23;24.60;52.50
38464;DHT22;24243;51.956;5.902;2023-05-07T14:34:50;24.50;52.30
38464;DHT22;24243;51.956;5.902;2023-05-07T14:37:16;24.50;52.20
38464;DHT22;24243;51.956;5.902;2023-05-07T14:39:41;24.50;52.10
38464;DHT22;24243;51.956;5.902;2023-05-07T14:42:07;24.40;52.10
38464;DHT22;24243;51.956;5.902;2023-05-07T14:44:34;24.40;52.10
38464;DHT22;24243;51.956;5.902;2023-05-07T14:47:00;24.40;52.20
38464;DHT22;24243;51.956;5.902;2023-05-07T14:49:26;24.40;52.20
38464;DHT22;24243;51.956;5.902;2023-05-07T14:51:51;24.40;52.30
38464;DHT22;24243;51.956;5.902;2023-05-07T14:54:17;24.40;52.90
38464;DHT22;24243;51.956;5.902;2023-05-07T14:56:43;24.40;52.40
38464;DHT22;24243;51.956;5.902;2023-05-07T14:59:09;24.40;52.20
38464;DHT22;24243;51.956;5.902;2023-05-07T15:01:36;24.30;52.10
38464;DHT22;24243;51.956;5.902;2023-05-07T15:04:04;24.30;52.00
38464;DHT22;24243;51.956;5.902;2023-05-07T15:06:31;24.30;51.80
38464;DHT22;24243;51.956;5.902;2023-05-07T15:08:57;24.20;51.60
38464;DHT22;24243;51.956;5.902;2023-05-07T15:11:23;24.20;51.50
38464;DHT22;24243;51.956;5.902;2023-05-07T15:13:49;24.20;51.40
38464;DHT22;24243;51.956;5.902;2023-05-07T15:16:15;24.20;51.10
38464;DHT22;24243;51.956;5.902;2023-05-07T15:18:40;24.20;51.00
38464;DHT22;24243;51.956;5.902;2023-05-07T15:21:06;24.10;51.00
38464;DHT22;24243;51.956;5.902;2023-05-07T15:23:32;24.10;51.00
38464;DHT22;24243;51.956;5.902;2023-05-07T15:25:58;24.10;51.00
38464;DHT22;24243;51.956;5.902;2023-05-07T15:28:23;24.00;50.90
38464;DHT22;24243;51.956;5.902;2023-05-07T15:30:49;24.00;50.70
38464;DHT22;24243;51.956;5.902;2023-05-07T15:33:15;24.00;50.60
38464;DHT22;24243;51.956;5.902;2023-05-07T15:35:41;23.90;50.40
38464;DHT22;24243;51.956;5.902;2023-05-07T15:38:07;23.80;50.30
38464;DHT22;24243;51.956;5.902;2023-05-07T15:40:34;23.80;50.40
38464;DHT22;24243;51.956;5.902;2023-05-07T15:43:03;23.80;50.50
38464;DHT22;24243;51.956;5.902;2023-05-07T15:45:28;23.70;50.50
38464;DHT22;24243;51.956;5.902;2023-05-07T15:47:54;23.60;50.60
38464;DHT22;24243;51.956;5.902;2023-05-07T15:50:20;23.60;50.80